AirNav   Everest Fuels
 
 540 users online  

E67 Kearny Airport
Kearny, Arizona, USA

GOING TO KEARNY?


FAA INFORMATION EFFECTIVE 17 JUNE 2021

Location

FAA Identifier: E67
Lat/Long: 33-02-49.9000N 110-54-32.6000W
33-02.831667N 110-54.543333W
33.0471944,-110.9090556
(estimated)
Elevation: 1833 ft. / 559 m (estimated)
Variation: 12E (1985)
From city: 1 mile S of KEARNY, AZ
Time zone: UTC -7 (year round; does not observe DST)
Zip code: 85237

Airport Operations

Airport use: Open to the public
Activation date: 05/1962
Control tower: no
ARTCC: ALBUQUERQUE CENTER
FSS: PRESCOTT FLIGHT SERVICE STATION
NOTAMs facility: PRC (NOTAM-D service available)
Attendance: MON-FRI 0900-1700
EXCEPT HOLIDAYS
Wind indicator: yes
Segmented circle: no

Airport Communications

CTAF/UNICOM: 122.95

Airport Services

Parking: tiedowns
Airframe service: MAJOR
Powerplant service: MAJOR

Runway Information

Runway 8/26

Dimensions: 3400 x 60 ft. / 1036 x 18 m
Surface: concrete, in good condition
Weight bearing capacity: 
Single wheel: 12.5
RUNWAY 8  RUNWAY 26
Latitude: 33-02.851667N33-02.813000N
Longitude: 110-54.876000W110-54.211667W
Traffic pattern: leftleft
Displaced threshold: 195 ft.200 ft.
Markings: basic, in good conditionbasic, in good condition
Obstructions: 14 ft. tree, 240 ft. from runway, 35 ft. right of centerline, 2:1 slope to clear
+6 FT BRUSH 100-200 FT FM THLD, 60-125 FT RIGHT OF CNTRLN.
20 ft. tree, 215 ft. from runway
RWY 26 10-20 FT BRUSH & TREES 0-150 FT FM EOR, 90-125 FT LEFT OF CNTRLN; 10-20 FT BRUSH & TREES 150-200 FT FROM EOR, 35-125 FT LEFT OF CNTRLN.

Airport Ownership and Management from official FAA records

Ownership: Publicly-owned
Owner: TOWN OF KEARNY
912-C, TILBURY DRIVE
KEARNY, AZ 85137
Phone 520-363-5547
TOWN FAX NUMBER: 520-363-7527.
Manager: ANNA FLORES
912-C, TILBURY DRIVE P.O. BOX 639
KEARNY, AZ 85137
Phone 520-363-5547
TOWN MANAGER.

Airport Operational Statistics

Aircraft based on the field: 4
Single engine airplanes: 3
Ultralights: 1
    
Aircraft operations: avg 28/week *
76% transient general aviation
17% local general aviation
7% military
* for 12-month period ending 02 April 2020

Additional Remarks

FOR NOISE ABATEMENT AVOID SCHOOLS AND HOMES.
MEDICAL HELICOPTER BASE 1 NM NORTHWEST.
FOR AIRPORT CONDITIONS & INFORMATION CALL FBO: 520-363-5175.
FOR CD CTC ALBUQUERQUE ARTCC AT 505-856-4861.
BIRDS, WILDFLIFE, MILITARY OPS INVOF ARPT.
EXPECT TURBULENCE ON RWY 26 APCH WITH WIND FROM N AND ON DEP RWY 26.
CALM WIND USE RWY 08. RAPIDLY RISING TERRAIN ALL QUADRANTS EXCEPT SE QUADRANT.
NO LIGHTING ON AIRPORT, NIGHT OPERATIONS NOT RECOMMENDED.
FENCE 270 FT L/R OFF RWY 26 END.
FENCE 240 FT L/R OFF RWY 08 END.
DITCH BOTH SIDES RWY 08 END, 60 FT L/R OF CENTERLINE WITH 6 FT DROPS.

Instrument Procedures

There are no published instrument procedures at E67.

Some nearby airports with instrument procedures:

P13 - San Carlos Apache Airport (22 nm NE)
P08 - Coolidge Municipal Airport (27 nm W)
KIWA - Phoenix-Mesa Gateway Airport (41 nm NW)
KAVQ - Marana Regional Airport (41 nm S)
KCGZ - Casa Grande Municipal Airport (44 nm W)
 
Loc | Ops | Rwys | IFR | FBO | Links
Com | Nav | Svcs | Stats | Notes
Area around E67 (Kearny Airport)
 
Road maps at: MapQuest Bing Google
 
Aerial photo
WARNING: Photo may not be current or correct
Aerial photo of E67 (Kearny Airport)
Photo taken 18-Nov-2011
looking south.

Do you have a better or more recent aerial photo of Kearny Airport that you would like to share? If so, please send us your photo.

 
Sectional chart

 
Airport distance calculator
Flying to Kearny Airport? Find the distance to fly.

From to E67

Sunrise and sunset
Times for 22-Jun-2021
 Local
(UTC-7)
 Zulu
(UTC)
Morning civil twilight04:4811:48
Sunrise05:1712:17
Sunset19:3502:35
Evening civil twilight20:0303:03

Current date and time
Zulu (UTC)  22-Jun-2021 10:43:26
Local (UTC-7)  22-Jun-2021 03:43:26
 
METAR
KP08 
27nm W 
221010Z AUTO 14005KT 10SM CLR 29/07 A2985 RMK AO2
KMZJ 
38nm SW 
221015Z AUTO 11005KT 10SM CLR 28/06 A2990 RMK AO2
KIWA 
40nm W 
221015Z AUTO 12004KT 10SM 29/10 A2983 RMK AO2 T02880099
KAVQ 
41nm S 
221015Z AUTO 15003KT 10SM CLR 28/06 A2989 RMK AO2 T02760060
KCGZ 
44nm W 
220956Z AUTO 28005KT 10SM CLR 30/13 A2984 RMK AO2 SLP083 T03000133
KCHD 
47nm W 
220347Z 24006KT 10SM SKC 38/05 A2979 RMK LAST
KFFZ 
48nm NW 
220954Z 00000KT 10SM CLR 32/11 A2981 RMK AO2 SLP065 T03220111 $
TAF
KIWA 
40nm W 
220520Z 2206/2306 25005KT P6SM FEW150 FEW250 FM220800 12004KT P6SM SKC FM221700 21005KT P6SM SCT250 FM221900 26006KT P6SM SCT180 BKN250 FM222300 28011G19KT P6SM SCT180 BKN250 PROB30 2301/2305 -SHRA BKN120 FM230500 28006KT P6SM BKN100 BKN150 AMD LTD TO CLD VIS AND WIND TIL 221200
NOTAMs
Click for the latest NOTAMs
NOTAMs are issued by the DoD/FAA and will open in a separate window not controlled by AirNav.

 

 
 

Would you like to see your business listed on this page?

 If your business provides an interesting product or service to pilots, flight crews, aircraft, or users of the Kearny Airport, you should consider listing it here.  To start the listing process, click on the button below
 
Add a business
 

Other Pages about Kearny Airport

www.townofkearny.com/departments.html#airport
 
Update a link
 
Copyright © AirNav, LLC. All rights reserved. Privacy Policy  Contact